Time;durP1;ratioP1;P1;durP2;ratioP2;P2;SDS_P1;SDS_P2;PMS_P1;PMS_P2;Temp;Humidity;BMP_temperature;BMP_pressure;BME280_temperature;BME280_humidity;BME280_pressure;Samples;Min_cycle;Max_cycle;Signal;HPM_P1;HPM_P2
2022/08/29 00:01:07;;;;;;;6.28;2.70;;;14.70;99.90;;;;;;5066668;28;20036;-70
2022/08/29 00:03:34;;;;;;;7.82;2.72;;;14.70;99.90;;;;;;5065107;28;20507;-71
2022/08/29 00:06:00;;;;;;;9.65;3.03;;;14.70;99.90;;;;;;5070290;28;20048;-71
2022/08/29 00:08:26;;;;;;;7.07;3.20;;;14.70;99.90;;;;;;5061110;28;20074;-71
2022/08/29 00:10:52;;;;;;;6.13;2.85;;;14.70;99.90;;;;;;5084042;28;20035;-71
2022/08/29 00:13:18;;;;;;;6.18;2.90;;;14.70;99.90;;;;;;5055562;28;20088;-71
2022/08/29 00:15:44;;;;;;;7.38;3.03;;;14.70;99.90;;;;;;5090996;28;20091;-71
2022/08/29 00:18:11;;;;;;;6.75;2.67;;;14.70;99.90;;;;;;5061862;28;20044;-71
2022/08/29 00:20:36;;;;;;;6.22;3.17;;;14.70;99.90;;;;;;5063243;28;20450;-71
2022/08/29 00:23:04;;;;;;;8.90;3.72;;;14.70;99.90;;;;;;5065021;28;20040;-71
2022/08/29 00:25:30;;;;;;;6.00;3.08;;;14.80;99.90;;;;;;5083614;28;20051;-71
2022/08/29 00:27:57;;;;;;;6.65;3.65;;;14.70;99.90;;;;;;5066380;28;20040;-71
2022/08/29 00:30:23;;;;;;;9.30;3.90;;;14.80;99.90;;;;;;5048787;28;20106;-71
2022/08/29 00:32:49;;;;;;;7.97;4.22;;;14.80;99.90;;;;;;5065731;28;20032;-71
2022/08/29 00:35:24;;;;;;;8.68;4.15;;;14.80;99.90;;;;;;5060007;28;20522;-71
2022/08/29 00:37:51;;;;;;;6.50;3.10;;;14.70;99.90;;;;;;5065655;28;20041;-71
2022/08/29 00:40:27;;;;;;;6.75;3.05;;;14.80;99.90;;;;;;5078610;28;20085;-71
2022/08/29 00:42:52;;;;;;;6.57;3.40;;;14.80;99.90;;;;;;5085348;28;20488;-71
2022/08/29 00:45:19;;;;;;;4.95;3.20;;;14.80;99.90;;;;;;5078737;28;20557;-71
2022/08/29 00:47:51;;;;;;;6.20;3.40;;;14.80;99.90;;;;;;5069795;28;20043;-71
2022/08/29 00:50:40;;;;;;;8.70;3.30;;;14.80;99.90;;;;;;5062219;28;20065;-71
2022/08/29 00:53:11;;;;;;;7.95;3.50;;;14.80;99.90;;;;;;5063114;28;20567;-71
2022/08/29 00:55:38;;;;;;;7.78;3.55;;;14.80;99.90;;;;;;5078100;28;20487;-71
2022/08/29 00:58:13;;;;;;;8.50;4.07;;;14.80;99.90;;;;;;5065081;28;20032;-71
2022/08/29 01:00:39;;;;;;;8.63;3.15;;;14.80;99.90;;;;;;5075172;28;20123;-71
2022/08/29 01:03:06;;;;;;;7.45;3.60;;;14.70;99.90;;;;;;5076902;28;20546;-71
2022/08/29 01:05:31;;;;;;;6.22;3.60;;;14.70;99.90;;;;;;5059388;28;20491;-71
2022/08/29 01:07:57;;;;;;;6.22;3.40;;;14.80;99.90;;;;;;5065100;28;20041;-71
2022/08/29 01:13:09;;;;;;;8.90;4.00;;;14.80;99.90;;;;;;5064218;28;20067;-71
2022/08/29 01:15:36;;;;;;;5.80;3.25;;;14.80;99.90;;;;;;5064980;28;20069;-71
2022/08/29 01:18:03;;;;;;;9.00;4.47;;;14.80;99.90;;;;;;5069929;28;20044;-71
2022/08/29 01:20:48;;;;;;;7.57;3.55;;;14.80;99.90;;;;;;5067963;28;20067;-71
2022/08/29 01:23:20;;;;;;;8.18;3.58;;;14.80;99.90;;;;;;5065253;28;20044;-71
2022/08/29 01:25:49;;;;;;;7.75;3.33;;;14.80;99.90;;;;;;5062643;28;20032;-71
2022/08/29 01:28:27;;;;;;;8.68;3.55;;;14.80;99.90;;;;;;5073859;28;20063;-71
2022/08/29 01:31:14;;;;;;;6.85;3.35;;;14.80;99.90;;;;;;5066936;28;20043;-71
2022/08/29 01:33:50;;;;;;;6.90;3.50;;;14.80;99.90;;;;;;5068252;28;20140;-71
2022/08/29 01:36:23;;;;;;;7.30;3.40;;;14.80;99.90;;;;;;5087283;28;20044;-71
2022/08/29 01:38:50;;;;;;;8.68;4.20;;;14.80;99.90;;;;;;5067995;28;20036;-71
2022/08/29 01:41:17;;;;;;;7.38;3.97;;;14.80;99.90;;;;;;5087128;28;20048;-71
2022/08/29 01:43:47;;;;;;;8.18;4.00;;;14.80;99.90;;;;;;5068449;28;20138;-71
2022/08/29 01:46:16;;;;;;;7.82;3.33;;;14.80;99.90;;;;;;5063615;28;20047;-71
2022/08/29 01:48:43;;;;;;;7.32;3.67;;;14.80;99.90;;;;;;5061890;28;20442;-71
2022/08/29 01:51:10;;;;;;;7.13;4.07;;;14.80;99.90;;;;;;5063483;28;20048;-71
2022/08/29 01:53:37;;;;;;;6.40;3.97;;;14.80;99.90;;;;;;5067492;28;20044;-71
2022/08/29 01:56:16;;;;;;;9.15;3.80;;;14.90;99.90;;;;;;5070130;28;20463;-71
2022/08/29 01:58:42;;;;;;;7.90;3.30;;;14.90;99.90;;;;;;5071358;28;20158;-71
2022/08/29 02:01:11;;;;;;;8.20;3.55;;;14.90;99.90;;;;;;5067324;28;20268;-71
2022/08/29 02:03:37;;;;;;;6.40;3.80;;;14.90;99.90;;;;;;5084870;28;20074;-71
2022/08/29 02:06:03;;;;;;;6.53;3.53;;;14.90;99.90;;;;;;5068543;28;20036;-71
2022/08/29 02:08:29;;;;;;;7.93;3.55;;;14.90;99.90;;;;;;5065800;28;20094;-71
2022/08/29 02:10:57;;;;;;;8.25;3.90;;;14.90;99.90;;;;;;5068153;28;20041;-71
2022/08/29 02:13:23;;;;;;;7.88;3.67;;;14.90;99.90;;;;;;5060943;28;20083;-71
2022/08/29 02:15:50;;;;;;;9.93;3.22;;;15.00;99.90;;;;;;5084451;28;20044;-71
2022/08/29 02:18:17;;;;;;;7.95;3.63;;;15.00;99.90;;;;;;5083603;28;20492;-71
2022/08/29 02:20:44;;;;;;;10.35;3.92;;;15.00;99.90;;;;;;5073854;28;20383;-71
2022/08/29 02:23:10;;;;;;;8.52;3.42;;;15.00;99.90;;;;;;5068728;28;20143;-71
2022/08/29 02:25:41;;;;;;;8.75;3.60;;;15.00;99.90;;;;;;5069602;28;20054;-71
2022/08/29 02:28:11;;;;;;;9.05;3.70;;;15.00;99.90;;;;;;5067697;28;20078;-71
2022/08/29 02:30:39;;;;;;;8.57;3.65;;;15.00;99.90;;;;;;5065328;28;20135;-71
2022/08/29 02:33:05;;;;;;;5.88;3.30;;;15.00;99.90;;;;;;5064772;28;20093;-71
2022/08/29 02:35:31;;;;;;;6.10;3.60;;;15.00;99.90;;;;;;5071068;28;20040;-71
2022/08/29 02:37:57;;;;;;;6.80;3.95;;;15.10;99.90;;;;;;5063973;28;20041;-71
2022/08/29 02:40:25;;;;;;;6.63;4.03;;;15.10;99.90;;;;;;5062754;28;20542;-71
2022/08/29 02:42:52;;;;;;;7.28;3.88;;;15.10;99.90;;;;;;5065051;28;20052;-71
2022/08/29 02:45:19;;;;;;;7.75;3.80;;;15.10;99.90;;;;;;5068618;28;20101;-71
2022/08/29 02:47:45;;;;;;;8.43;3.60;;;15.00;99.90;;;;;;5073580;28;20127;-71
2022/08/29 02:50:11;;;;;;;7.80;4.20;;;15.10;99.90;;;;;;5066929;28;20492;-71
2022/08/29 02:52:41;;;;;;;6.65;3.70;;;15.10;99.90;;;;;;5070657;28;20048;-71
2022/08/29 02:55:10;;;;;;;7.05;3.17;;;15.10;99.90;;;;;;5066237;28;20072;-71
2022/08/29 02:57:36;;;;;;;6.82;3.50;;;15.10;99.90;;;;;;5073811;28;20036;-71
2022/08/29 03:00:08;;;;;;;6.90;3.70;;;15.10;99.90;;;;;;5086402;28;20043;-71
2022/08/29 03:02:34;;;;;;;6.82;3.90;;;15.10;99.90;;;;;;5085650;28;20040;-71
2022/08/29 03:04:59;;;;;;;5.65;3.65;;;15.10;99.90;;;;;;5065048;28;20569;-71
2022/08/29 03:07:25;;;;;;;10.30;3.67;;;15.10;99.90;;;;;;5054099;28;20043;-71
2022/08/29 03:09:51;;;;;;;5.32;3.45;;;15.10;99.90;;;;;;5084996;28;20411;-71
2022/08/29 03:12:17;;;;;;;6.78;3.67;;;15.10;99.90;;;;;;5069688;28;20047;-71
2022/08/29 03:14:43;;;;;;;6.47;3.60;;;15.00;99.90;;;;;;5084599;28;20124;-71
2022/08/29 03:17:09;;;;;;;8.52;4.10;;;15.10;99.90;;;;;;5071352;28;20040;-71
2022/08/29 03:19:34;;;;;;;7.13;4.22;;;15.10;99.90;;;;;;5064576;28;20051;-71
2022/08/29 03:22:00;;;;;;;7.72;4.18;;;15.00;99.90;;;;;;5074716;28;20036;-71
2022/08/29 03:24:27;;;;;;;10.45;3.78;;;15.00;99.90;;;;;;5066904;28;20055;-71
2022/08/29 03:26:54;;;;;;;14.90;4.07;;;15.00;99.90;;;;;;5064660;28;20055;-71
2022/08/29 03:29:20;;;;;;;7.93;3.92;;;15.00;99.90;;;;;;5062652;28;20051;-71
2022/08/29 03:31:46;;;;;;;6.75;4.28;;;15.00;99.90;;;;;;5074720;28;20516;-71
2022/08/29 03:34:13;;;;;;;9.48;3.97;;;15.00;99.90;;;;;;5065062;28;20051;-71
2022/08/29 03:36:40;;;;;;;8.35;4.00;;;15.00;99.90;;;;;;5084878;28;20043;-71
2022/08/29 03:39:06;;;;;;;8.13;3.60;;;15.00;99.90;;;;;;5068194;28;20071;-71
2022/08/29 03:41:32;;;;;;;8.35;3.95;;;15.00;99.90;;;;;;5064985;28;20037;-71
2022/08/29 03:43:59;;;;;;;9.60;4.10;;;15.00;99.90;;;;;;5066432;28;20052;-71
2022/08/29 03:46:25;;;;;;;6.90;3.83;;;15.00;99.90;;;;;;5079277;28;20048;-71
2022/08/29 03:48:51;;;;;;;10.23;4.13;;;15.00;99.90;;;;;;5063009;28;20071;-71
2022/08/29 03:51:18;;;;;;;7.00;3.75;;;15.00;99.90;;;;;;5057404;28;20098;-71
2022/08/29 03:53:44;;;;;;;6.70;3.90;;;15.00;99.90;;;;;;5064733;28;20049;-71
2022/08/29 03:56:11;;;;;;;8.20;4.00;;;15.00;99.90;;;;;;5063058;28;20127;-71
2022/08/29 03:58:38;;;;;;;8.38;3.53;;;15.00;99.90;;;;;;5070354;28;20032;-71
2022/08/29 04:01:04;;;;;;;8.35;3.97;;;15.00;99.90;;;;;;5062308;28;20040;-71
2022/08/29 04:03:30;;;;;;;6.85;3.35;;;15.00;99.90;;;;;;5071389;28;20043;-71
2022/08/29 04:05:56;;;;;;;7.82;3.67;;;15.00;99.90;;;;;;5065345;28;20037;-71
2022/08/29 04:08:22;;;;;;;9.02;3.90;;;15.00;99.90;;;;;;5071278;28;20109;-71
2022/08/29 04:10:48;;;;;;;9.80;3.97;;;14.90;99.90;;;;;;5073317;28;20513;-71
2022/08/29 04:13:14;;;;;;;5.72;3.42;;;14.90;99.90;;;;;;5067823;28;20032;-70
2022/08/29 04:15:40;;;;;;;7.97;3.38;;;14.80;99.90;;;;;;5063300;28;20404;-71
2022/08/29 04:18:09;;;;;;;7.97;4.10;;;14.80;99.90;;;;;;5049203;28;20037;-71
2022/08/29 04:20:43;;;;;;;8.75;4.10;;;14.70;99.90;;;;;;5051484;28;20044;-71
2022/08/29 04:23:11;;;;;;;6.43;3.72;;;14.70;99.90;;;;;;5064626;28;20060;-71
2022/08/29 04:25:38;;;;;;;7.30;3.72;;;14.70;99.90;;;;;;5062633;28;20091;-71
2022/08/29 04:28:10;;;;;;;7.72;3.85;;;14.60;99.90;;;;;;5061230;28;20071;-71
2022/08/29 04:30:38;;;;;;;8.43;3.83;;;14.60;99.90;;;;;;5060851;28;20067;-71
2022/08/29 04:33:04;;;;;;;9.32;4.05;;;14.60;99.90;;;;;;5061401;28;20590;-71
2022/08/29 04:35:30;;;;;;;8.38;4.10;;;14.50;99.90;;;;;;5062369;28;20480;-71
2022/08/29 04:37:55;;;;;;;8.00;3.67;;;14.50;99.90;;;;;;5062955;28;20043;-71
2022/08/29 04:40:22;;;;;;;8.00;3.80;;;14.50;99.90;;;;;;5064368;28;20419;-71
2022/08/29 04:42:48;;;;;;;7.30;3.70;;;14.40;99.90;;;;;;5061800;28;20423;-71
2022/08/29 04:45:17;;;;;;;9.50;4.00;;;14.40;99.90;;;;;;5063768;28;20135;-71
2022/08/29 04:47:45;;;;;;;8.30;3.65;;;14.30;99.90;;;;;;5049591;28;20048;-71
2022/08/29 04:50:13;;;;;;;10.00;4.18;;;14.30;99.90;;;;;;5051497;28;20035;-71
2022/08/29 04:52:40;;;;;;;6.97;3.92;;;14.30;99.90;;;;;;5063693;28;20098;-71
2022/08/29 04:55:07;;;;;;;8.25;3.63;;;14.20;99.90;;;;;;5082296;28;20036;-70
2022/08/29 04:57:34;;;;;;;6.18;3.47;;;14.30;99.90;;;;;;5067466;28;21074;-71
2022/08/29 05:00:00;;;;;;;7.28;4.38;;;14.20;99.90;;;;;;5063115;28;20055;-71
2022/08/29 05:02:26;;;;;;;7.78;3.30;;;14.20;99.90;;;;;;5062392;28;20041;-71
2022/08/29 05:04:53;;;;;;;7.43;4.15;;;14.30;99.90;;;;;;5064243;28;20054;-71
2022/08/29 05:07:24;;;;;;;8.98;3.65;;;14.30;99.90;;;;;;5062786;28;20472;-70
2022/08/29 05:10:03;;;;;;;6.70;4.00;;;14.30;99.90;;;;;;5078587;28;20043;-71
2022/08/29 05:12:30;;;;;;;7.10;3.72;;;14.40;99.90;;;;;;5062802;28;20503;-70
2022/08/29 05:14:56;;;;;;;8.98;3.95;;;14.40;99.90;;;;;;5065466;28;20033;-71
2022/08/29 05:17:23;;;;;;;8.57;4.45;;;14.40;99.90;;;;;;5065076;28;20114;-71
2022/08/29 05:19:49;;;;;;;8.70;3.95;;;14.50;99.90;;;;;;5082008;28;20044;-71
2022/08/29 05:22:17;;;;;;;8.68;3.40;;;14.50;99.90;;;;;;5062781;28;20565;-71
2022/08/29 05:24:42;;;;;;;7.43;3.80;;;14.60;99.90;;;;;;5058529;28;20128;-71
2022/08/29 05:27:14;;;;;;;7.53;3.85;;;14.60;99.90;;;;;;5061042;28;20051;-69
2022/08/29 05:29:42;;;;;;;9.90;4.18;;;14.60;99.90;;;;;;5067405;28;20594;-69
2022/08/29 05:32:09;;;;;;;7.30;3.80;;;14.70;99.90;;;;;;5059576;28;20037;-70
2022/08/29 05:34:37;;;;;;;10.20;4.43;;;14.80;99.90;;;;;;5065204;28;20036;-70
2022/08/29 05:37:06;;;;;;;10.70;3.92;;;14.80;99.90;;;;;;5060692;28;20033;-69
2022/08/29 05:39:33;;;;;;;12.48;4.35;;;14.90;99.90;;;;;;5060919;28;20115;-69
2022/08/29 05:41:59;;;;;;;7.75;3.58;;;14.90;99.90;;;;;;5066534;28;20490;-68
2022/08/29 05:44:27;;;;;;;9.27;4.00;;;15.00;99.90;;;;;;5049984;28;20040;-69
2022/08/29 05:46:53;;;;;;;6.93;2.83;;;15.10;99.90;;;;;;5083768;28;20048;-68
2022/08/29 05:49:22;;;;;;;8.85;3.42;;;15.10;99.90;;;;;;5060992;28;20051;-68
2022/08/29 05:51:51;;;;;;;10.23;3.75;;;15.10;99.90;;;;;;5054717;28;20045;-69
2022/08/29 05:54:16;;;;;;;9.68;3.70;;;15.20;99.90;;;;;;5043697;28;20041;-68
2022/08/29 05:56:42;;;;;;;8.02;3.55;;;15.30;99.90;;;;;;5044942;28;20040;-69
2022/08/29 05:59:10;;;;;;;8.82;3.53;;;15.40;99.90;;;;;;5045838;28;20049;-69
2022/08/29 06:01:36;;;;;;;9.48;3.63;;;15.40;99.90;;;;;;5042173;28;20044;-68
2022/08/29 06:04:02;;;;;;;7.25;3.70;;;15.50;99.90;;;;;;5042673;28;20045;-68
2022/08/29 06:06:28;;;;;;;5.70;3.08;;;15.60;99.90;;;;;;5037527;28;20044;-68
2022/08/29 06:08:55;;;;;;;9.20;3.08;;;15.70;99.90;;;;;;5045602;28;20036;-69
2022/08/29 06:11:27;;;;;;;7.93;3.70;;;15.70;99.90;;;;;;5043439;28;20041;-69
2022/08/29 06:13:53;;;;;;;8.25;3.13;;;15.80;99.90;;;;;;5049788;28;20068;-68
2022/08/29 06:16:20;;;;;;;7.85;3.60;;;16.00;99.90;;;;;;5048610;28;20077;-69
2022/08/29 06:18:46;;;;;;;5.35;2.90;;;16.10;99.90;;;;;;5048035;28;20039;-69
2022/08/29 06:21:13;;;;;;;8.57;2.80;;;16.20;99.90;;;;;;5043429;28;20039;-69
2022/08/29 06:23:40;;;;;;;10.18;3.20;;;16.30;99.90;;;;;;5047120;28;20037;-69
2022/08/29 06:26:07;;;;;;;9.13;3.03;;;16.40;99.90;;;;;;5047047;28;20124;-69
2022/08/29 06:28:35;;;;;;;10.63;3.30;;;16.50;99.90;;;;;;5043749;28;20087;-69
2022/08/29 06:31:09;;;;;;;7.60;2.28;;;16.60;99.90;;;;;;5064781;28;20048;-69
2022/08/29 06:33:35;;;;;;;6.55;2.15;;;16.60;99.90;;;;;;5045862;28;20048;-69
2022/08/29 06:36:03;;;;;;;7.45;2.67;;;16.70;99.90;;;;;;5047771;28;20497;-68
2022/08/29 06:38:28;;;;;;;11.02;2.75;;;16.80;99.90;;;;;;5044235;28;20076;-68
2022/08/29 06:40:54;;;;;;;12.38;2.75;;;16.80;99.90;;;;;;5056356;28;20531;-68
2022/08/29 06:43:21;;;;;;;7.45;2.05;;;16.90;99.90;;;;;;5051894;28;20049;-68
2022/08/29 06:45:47;;;;;;;7.53;2.15;;;16.90;99.90;;;;;;5045888;28;20099;-69
2022/08/29 06:48:13;;;;;;;5.95;1.92;;;17.00;99.90;;;;;;5043105;28;20523;-68
2022/08/29 06:50:39;;;;;;;7.68;2.45;;;17.10;99.90;;;;;;5047377;28;20075;-68
2022/08/29 06:53:09;;;;;;;8.68;2.17;;;17.20;99.90;;;;;;5043078;28;20427;-69
2022/08/29 06:55:35;;;;;;;10.35;2.08;;;17.20;99.90;;;;;;5061063;28;20036;-68
2022/08/29 06:58:01;;;;;;;11.75;2.22;;;17.30;99.90;;;;;;5064686;28;20049;-69
2022/08/29 07:00:26;;;;;;;6.88;1.48;;;17.40;99.90;;;;;;5044425;28;20116;-68
2022/08/29 07:02:52;;;;;;;8.10;1.92;;;17.40;99.90;;;;;;5069784;28;20139;-68
2022/08/29 07:05:18;;;;;;;7.35;2.33;;;17.50;99.90;;;;;;5063495;28;20064;-69
2022/08/29 07:07:44;;;;;;;10.38;2.28;;;17.60;99.90;;;;;;5060217;28;20120;-69
2022/08/29 07:10:13;;;;;;;8.43;2.20;;;17.70;99.90;;;;;;5066026;28;20140;-68
2022/08/29 07:12:39;;;;;;;8.10;2.05;;;17.80;99.90;;;;;;5063087;28;20412;-68
2022/08/29 07:15:06;;;;;;;8.52;1.75;;;17.90;99.90;;;;;;5068862;28;20401;-68
2022/08/29 07:17:32;;;;;;;6.10;1.58;;;17.90;99.90;;;;;;5057996;28;20103;-68
2022/08/29 07:19:58;;;;;;;6.45;1.58;;;18.00;99.90;;;;;;5064713;28;20099;-68
2022/08/29 07:22:27;;;;;;;6.75;1.50;;;18.00;99.90;;;;;;5057302;28;20488;-68
2022/08/29 07:24:54;;;;;;;5.00;1.40;;;18.00;99.90;;;;;;5059391;28;20060;-69
2022/08/29 07:27:21;;;;;;;7.60;2.00;;;18.10;99.90;;;;;;5057172;28;20044;-68
2022/08/29 07:29:47;;;;;;;7.85;2.15;;;18.10;99.90;;;;;;5045035;28;20053;-68
2022/08/29 07:32:13;;;;;;;5.82;1.30;;;18.20;99.90;;;;;;5064654;28;20031;-68
2022/08/29 07:34:38;;;;;;;6.60;1.42;;;18.30;99.90;;;;;;5063289;28;20749;-68
2022/08/29 07:37:04;;;;;;;9.02;1.88;;;18.40;99.90;;;;;;5061486;28;20068;-68
2022/08/29 07:39:31;;;;;;;7.55;1.85;;;18.40;99.90;;;;;;5061769;28;20029;-69
2022/08/29 07:42:00;;;;;;;6.57;1.88;;;18.60;99.90;;;;;;5067545;28;20037;-68
2022/08/29 07:44:26;;;;;;;13.98;2.42;;;18.70;99.90;;;;;;5064018;28;20404;-68
2022/08/29 07:46:56;;;;;;;8.23;1.90;;;18.80;99.90;;;;;;5062894;28;20049;-68
2022/08/29 07:49:23;;;;;;;8.02;2.28;;;18.80;99.90;;;;;;5065303;28;20037;-68
2022/08/29 07:51:50;;;;;;;6.50;1.80;;;19.00;99.90;;;;;;5072926;28;20095;-68
2022/08/29 07:54:17;;;;;;;9.57;1.95;;;19.00;99.90;;;;;;5069328;28;20048;-68
2022/08/29 07:56:45;;;;;;;10.90;2.25;;;19.20;99.90;;;;;;5073087;28;20040;-68
2022/08/29 07:59:10;;;;;;;8.55;2.33;;;19.30;99.90;;;;;;5072860;28;20076;-68
2022/08/29 08:01:37;;;;;;;8.77;2.28;;;19.40;99.90;;;;;;5092324;28;20071;-68
2022/08/29 08:04:03;;;;;;;8.50;2.22;;;19.70;99.90;;;;;;5071546;28;20101;-68
2022/08/29 08:06:29;;;;;;;7.63;2.33;;;20.20;99.90;;;;;;5083563;28;20044;-68
2022/08/29 08:08:55;;;;;;;11.57;2.58;;;20.80;99.90;;;;;;5064163;28;20039;-69
2022/08/29 08:11:23;;;;;;;11.93;2.25;;;20.90;99.90;;;;;;5091202;28;20028;-69
2022/08/29 08:13:50;;;;;;;13.35;3.10;;;21.30;99.90;;;;;;5066313;28;20063;-68
2022/08/29 08:16:20;;;;;;;11.52;2.60;;;21.60;99.90;;;;;;5070175;28;20143;-68
2022/08/29 08:18:46;;;;;;;9.30;2.38;;;21.60;99.90;;;;;;5063405;28;20437;-68
2022/08/29 08:21:12;;;;;;;11.90;2.60;;;21.30;99.90;;;;;;5069245;28;20040;-68
2022/08/29 08:23:39;;;;;;;9.10;2.50;;;21.10;99.90;;;;;;5090473;28;20025;-68
2022/08/29 08:26:05;;;;;;;9.73;2.83;;;20.90;99.90;;;;;;5057191;28;20060;-68
2022/08/29 08:28:31;;;;;;;11.77;2.30;;;20.80;99.90;;;;;;5058072;28;20133;-68
2022/08/29 08:30:58;;;;;;;10.70;2.70;;;20.70;99.90;;;;;;5065410;28;20080;-68
2022/08/29 08:33:24;;;;;;;7.07;2.00;;;20.50;99.90;;;;;;5085385;28;20080;-68
2022/08/29 08:35:50;;;;;;;5.82;1.60;;;20.40;99.90;;;;;;5061219;28;20035;-68
2022/08/29 08:38:15;;;;;;;8.00;2.22;;;20.20;99.90;;;;;;5082832;28;20054;-68
2022/08/29 08:40:57;;;;;;;6.28;2.00;;;20.10;99.90;;;;;;5080589;28;20071;-68
2022/08/29 08:43:27;;;;;;;10.20;2.10;;;20.20;99.90;;;;;;5068391;28;20060;-68
2022/08/29 08:45:55;;;;;;;7.28;1.85;;;20.20;99.90;;;;;;5050566;28;20144;-68
2022/08/29 08:48:27;;;;;;;8.57;2.30;;;20.20;99.90;;;;;;5065901;28;20056;-68
2022/08/29 08:51:13;;;;;;;7.55;1.90;;;20.20;99.90;;;;;;5083263;28;20123;-69
2022/08/29 08:53:42;;;;;;;7.57;1.92;;;20.30;99.90;;;;;;5082683;28;20427;-68
2022/08/29 08:56:21;;;;;;;6.97;2.08;;;20.30;99.90;;;;;;5068070;28;20392;-68
2022/08/29 08:59:01;;;;;;;6.00;2.10;;;20.30;99.90;;;;;;5065026;28;20044;-68
2022/08/29 09:01:36;;;;;;;6.50;2.63;;;20.20;99.90;;;;;;5069731;28;20506;-69
2022/08/29 09:04:24;;;;;;;6.93;1.77;;;20.20;99.90;;;;;;5061934;28;20052;-69
2022/08/29 09:07:08;;;;;;;9.13;1.63;;;20.20;99.90;;;;;;5077988;28;20105;-67
2022/08/29 09:09:52;;;;;;;8.63;2.15;;;20.30;99.90;;;;;;5067474;28;20495;-67
2022/08/29 09:12:21;;;;;;;;;;;20.30;99.90;;;;;;5065096;28;20044;-67
2022/08/29 09:15:00;;;;;;;6.88;1.80;;;20.30;99.90;;;;;;5083633;28;19916;-67
2022/08/29 09:17:35;;;;;;;5.50;1.60;;;20.30;99.90;;;;;;5045807;28;20044;-67
2022/08/29 09:20:07;;;;;;;6.72;1.77;;;20.30;99.90;;;;;;5071769;28;20135;-68
2022/08/29 09:22:34;;;;;;;12.82;2.60;;;20.50;99.90;;;;;;5065027;28;20079;-68
2022/08/29 09:25:08;;;;;;;9.27;1.98;;;20.60;99.90;;;;;;5071340;28;20082;-68
2022/08/29 09:27:35;;;;;;;7.55;1.90;;;20.80;99.90;;;;;;5085716;28;20071;-68
2022/08/29 09:30:07;;;;;;;10.65;2.13;;;20.90;99.90;;;;;;5067745;28;20102;-68
2022/08/29 09:32:49;;;;;;;8.57;1.92;;;21.00;99.90;;;;;;5067510;28;20053;-68
2022/08/29 09:35:25;;;;;;;6.53;1.90;;;21.10;99.90;;;;;;5089250;28;20035;-70
2022/08/29 09:37:57;;;;;;;8.18;1.92;;;21.20;99.90;;;;;;5080818;28;20028;-69
2022/08/29 09:40:24;;;;;;;8.73;2.10;;;21.30;99.90;;;;;;5070680;28;20048;-69
2022/08/29 09:43:01;;;;;;;5.60;1.88;;;21.40;99.90;;;;;;5082006;28;20048;-69
2022/08/29 09:45:27;;;;;;;8.07;2.05;;;21.60;99.90;;;;;;5067409;28;20165;-69
2022/08/29 09:48:14;;;;;;;6.93;1.85;;;21.60;99.90;;;;;;5085243;28;20102;-70
2022/08/29 09:50:39;;;;;;;9.18;2.05;;;21.60;99.90;;;;;;5071064;28;20060;-70
2022/08/29 09:53:05;;;;;;;5.63;1.92;;;21.50;99.90;;;;;;5087752;28;20055;-69
2022/08/29 09:55:33;;;;;;;6.72;2.15;;;21.50;99.90;;;;;;5068707;28;20496;-68
2022/08/29 09:58:27;;;;;;;7.68;2.28;;;21.60;99.90;;;;;;5084182;28;20113;-68
2022/08/29 10:01:10;;;;;;;10.77;2.42;;;21.70;99.90;;;;;;5070388;28;20052;-70
2022/08/29 10:03:40;;;;;;;9.35;2.85;;;21.90;99.90;;;;;;5068922;28;20048;-69
2022/08/29 10:06:13;;;;;;;9.48;2.30;;;22.60;99.90;;;;;;5073298;28;20060;-69
2022/08/29 10:08:40;;;;;;;8.40;2.65;;;23.10;99.90;;;;;;5062315;28;20084;-69
2022/08/29 10:11:20;;;;;;;8.32;2.30;;;23.90;99.90;;;;;;5073998;28;20071;-70
2022/08/29 10:14:10;;;;;;;11.27;2.83;;;24.50;99.60;;;;;;5080760;28;20071;-70
2022/08/29 10:18:19;;;;;;;7.85;2.22;;;24.40;95.20;;;;;;5064244;28;20049;-70
2022/08/29 10:19:44;;;;;;;9.18;2.55;;;24.20;97.00;;;;;;5066052;28;20040;-70
2022/08/29 10:22:39;;;;;;;9.55;2.58;;;24.70;97.50;;;;;;5056520;28;20059;-69
2022/08/29 10:25:15;;;;;;;7.72;1.70;;;24.90;94.80;;;;;;5092020;28;20095;-70
2022/08/29 10:27:54;;;;;;;8.50;2.40;;;24.50;94.60;;;;;;5072004;28;20576;-70
2022/08/29 10:30:26;;;;;;;6.13;2.55;;;24.00;94.40;;;;;;5084457;28;20054;-69
2022/08/29 10:33:33;;;;;;;10.73;2.75;;;23.60;94.50;;;;;;5057748;28;20052;-69
2022/08/29 10:36:09;;;;;;;9.02;2.30;;;23.30;95.00;;;;;;5068495;28;20097;-69
2022/08/29 10:38:58;;;;;;;9.82;2.33;;;23.00;96.10;;;;;;5085244;28;20036;-69
2022/08/29 10:41:56;;;;;;;7.63;2.50;;;23.00;96.50;;;;;;5071181;28;20048;-69
2022/08/29 10:44:38;;;;;;;7.97;2.67;;;23.10;96.30;;;;;;5063335;28;20059;-70
2022/08/29 10:47:19;;;;;;;7.00;2.47;;;23.20;95.80;;;;;;5083424;28;20041;-70
2022/08/29 10:50:21;;;;;;;7.82;2.38;;;23.30;95.60;;;;;;5087144;28;20036;-70
2022/08/29 10:52:54;;;;;;;10.07;2.60;;;23.40;96.60;;;;;;5069255;28;20048;-70
2022/08/29 10:55:38;;;;;;;8.20;2.97;;;23.70;95.80;;;;;;5067337;28;20043;-70
2022/08/29 10:58:10;;;;;;;7.63;2.85;;;24.10;95.00;;;;;;5087948;28;20123;-70
2022/08/29 11:01:12;;;;;;;10.25;2.67;;;24.50;95.30;;;;;;5069325;28;20048;-70
2022/08/29 11:04:03;;;;;;;10.13;2.50;;;24.60;94.20;;;;;;5065757;28;20105;-70
2022/08/29 11:06:43;;;;;;;14.73;2.88;;;24.30;93.70;;;;;;5070142;28;20059;-70
2022/08/29 11:09:23;;;;;;;8.40;2.60;;;23.90;93.70;;;;;;5085345;28;20079;-70
2022/08/29 11:12:46;;;;;;;9.48;2.70;;;23.60;94.20;;;;;;5081886;28;20059;-70
2022/08/29 11:15:30;;;;;;;9.88;3.20;;;23.30;94.70;;;;;;5039971;28;20081;-69
2022/08/29 11:18:33;;;;;;;9.32;2.58;;;23.10;95.20;;;;;;5053856;28;20070;-70
2022/08/29 11:21:21;;;;;;;11.52;3.10;;;23.00;96.10;;;;;;5065642;28;20531;-69
2022/08/29 11:23:47;;;;;;;7.30;2.70;;;22.80;95.60;;;;;;5084462;28;20407;-70
2022/08/29 11:26:21;;;;;;;6.50;2.45;;;22.80;95.60;;;;;;5072401;28;20040;-70
2022/08/29 11:28:53;;;;;;;9.23;3.17;;;22.90;95.40;;;;;;5088121;28;20043;-70
2022/08/29 11:31:45;;;;;;;8.27;2.70;;;22.70;95.80;;;;;;5062255;28;20112;-69
2022/08/29 11:34:24;;;;;;;9.40;2.92;;;22.40;95.40;;;;;;5058821;28;20063;-69
2022/08/29 11:37:15;;;;;;;6.78;2.40;;;22.20;96.40;;;;;;5068951;28;20123;-69
2022/08/29 11:39:57;;;;;;;9.02;2.90;;;21.80;96.70;;;;;;5068039;28;20048;-69
2022/08/29 11:42:32;;;;;;;6.28;2.53;;;21.60;97.40;;;;;;5064551;28;20040;-69
2022/08/29 11:45:00;;;;;;;7.22;2.60;;;21.40;97.50;;;;;;5068837;28;20483;-70
2022/08/29 11:47:44;;;;;;;10.02;2.95;;;21.30;97.70;;;;;;5068330;28;20036;-69
2022/08/29 11:50:15;;;;;;;8.40;2.55;;;21.30;98.00;;;;;;5088507;28;20037;-69
2022/08/29 11:53:18;;;;;;;8.63;3.13;;;21.20;98.40;;;;;;5058034;28;20127;-68
2022/08/29 11:56:13;;;;;;;7.70;3.03;;;21.30;98.50;;;;;;5072616;28;20049;-70
2022/08/29 11:58:44;;;;;;;9.63;3.08;;;21.30;99.00;;;;;;5093446;28;20044;-70
2022/08/29 12:01:35;;;;;;;8.40;3.03;;;21.40;99.00;;;;;;5073863;28;20499;-70
2022/08/29 12:04:06;;;;;;;7.13;2.60;;;21.50;99.30;;;;;;5078773;28;20051;-70
2022/08/29 12:06:36;;;;;;;8.55;3.20;;;21.50;99.10;;;;;;5077036;28;20044;-70
2022/08/29 12:09:11;;;;;;;10.52;2.83;;;21.60;98.60;;;;;;5073560;28;20032;-70
2022/08/29 12:12:11;;;;;;;7.18;2.50;;;21.70;98.10;;;;;;5087378;28;20135;-71
2022/08/29 12:15:26;;;;;;;8.23;2.20;;;21.80;97.90;;;;;;5075604;28;20040;-71
2022/08/29 12:17:54;;;;;;;8.73;2.60;;;21.80;98.00;;;;;;5052005;28;20053;-70
2022/08/29 12:20:29;;;;;;;7.28;2.50;;;21.90;97.60;;;;;;5077742;28;20059;-70
2022/08/29 12:23:10;;;;;;;7.63;2.65;;;22.00;96.70;;;;;;5066652;28;20055;-71
2022/08/29 12:25:44;;;;;;;6.70;2.78;;;22.00;96.50;;;;;;5075749;28;20078;-70
2022/08/29 12:28:26;;;;;;;6.05;2.55;;;22.10;96.60;;;;;;5054208;28;20484;-70
2022/08/29 12:30:58;;;;;;;9.02;2.70;;;22.10;96.40;;;;;;5061724;28;20198;-72
2022/08/29 12:33:45;;;;;;;6.75;2.60;;;22.10;97.00;;;;;;5056547;28;20051;-70
2022/08/29 12:36:30;;;;;;;8.25;2.75;;;22.20;97.50;;;;;;5078065;28;20040;-65
2022/08/29 12:39:41;;;;;;;6.95;2.33;;;22.20;98.70;;;;;;5074486;28;20035;-66
2022/08/29 12:42:44;;;;;;;7.95;2.58;;;22.30;98.30;;;;;;5058973;28;20071;-66
2022/08/29 12:45:16;;;;;;;10.93;2.60;;;22.40;98.20;;;;;;5078020;28;20046;-67
2022/08/29 12:47:59;;;;;;;9.85;2.55;;;22.50;97.50;;;;;;5080473;28;20038;-67
2022/08/29 12:50:31;;;;;;;12.15;2.90;;;22.50;95.50;;;;;;5063531;28;20047;-67
2022/08/29 12:53:22;;;;;;;9.00;2.83;;;22.50;95.70;;;;;;5082870;28;20086;-67
2022/08/29 12:55:57;;;;;;;7.68;2.42;;;22.50;95.90;;;;;;5078055;28;20044;-66
2022/08/29 12:58:42;;;;;;;6.10;2.20;;;22.50;96.30;;;;;;5073344;28;20230;-67
2022/08/29 13:01:24;;;;;;;7.22;2.40;;;22.50;96.70;;;;;;5059133;28;20368;-67
2022/08/29 13:04:08;;;;;;;6.57;2.50;;;22.50;96.80;;;;;;5074646;28;20169;-66
2022/08/29 13:06:34;;;;;;;;;;;22.60;96.30;;;;;;5075172;28;20037;-66
2022/08/29 13:09:01;;;;;;;7.47;2.58;;;22.50;95.50;;;;;;5072922;28;20023;-65
2022/08/29 13:11:29;;;;;;;7.25;2.30;;;22.40;95.60;;;;;;5056393;28;20225;-64